Time;durP1;ratioP1;P1;durP2;ratioP2;P2;SDS_P1;SDS_P2;PMS_P1;PMS_P2;Temp;Humidity;BMP_temperature;BMP_pressure;BME280_temperature;BME280_humidity;BME280_pressure;Samples;Min_cycle;Max_cycle;Signal;HPM_P1;HPM_P2
2021/12/04 00:00:37;;;;;;;3.00;2.80;;;6.50;89.60;;;;;;5093394;28;20099;-79
2021/12/04 00:03:04;;;;;;;3.10;2.90;;;6.50;89.70;;;;;;5092018;28;20016;-78
2021/12/04 00:05:30;;;;;;;3.60;3.30;;;6.50;89.70;;;;;;5091920;28;20051;-79
2021/12/04 00:07:56;;;;;;;4.18;3.40;;;6.50;89.70;;;;;;5093371;28;20044;-79
2021/12/04 00:10:27;;;;;;;3.50;3.20;;;6.50;89.70;;;;;;5091919;28;20392;-79
2021/12/04 00:12:53;;;;;;;3.65;3.35;;;6.50;89.70;;;;;;5091782;28;20020;-79
2021/12/04 00:15:18;;;;;;;3.58;3.28;;;6.50;89.70;;;;;;5091858;28;20035;-79
2021/12/04 00:17:44;;;;;;;3.92;3.58;;;6.50;89.70;;;;;;5091784;28;20055;-77
2021/12/04 00:20:11;;;;;;;3.55;3.25;;;6.50;89.70;;;;;;5091671;28;20070;-77
2021/12/04 00:22:37;;;;;;;4.18;3.80;;;6.50;89.80;;;;;;5093044;28;20111;-78
2021/12/04 00:25:05;;;;;;;4.03;3.67;;;6.50;89.70;;;;;;5091645;28;20028;-78
2021/12/04 00:27:31;;;;;;;4.20;3.88;;;6.60;89.80;;;;;;5091670;28;20027;-77
2021/12/04 00:29:58;;;;;;;4.15;3.75;;;6.60;89.70;;;;;;5091582;28;20020;-78
2021/12/04 00:32:31;;;;;;;4.45;4.05;;;6.60;89.80;;;;;;5091637;28;20545;-78
2021/12/04 00:51:17;;;;;;;4.95;4.53;;;6.60;89.70;;;;;;5097017;28;20474;-78
2021/12/04 00:53:43;;;;;;;5.95;4.20;;;6.60;89.70;;;;;;5096835;28;20090;-79
2021/12/04 00:56:08;;;;;;;4.85;4.35;;;6.60;90.10;;;;;;5095447;28;20032;-78
2021/12/04 00:58:34;;;;;;;5.22;4.72;;;6.60;89.70;;;;;;5095579;28;20399;-78
2021/12/04 01:01:00;;;;;;;5.38;4.88;;;6.60;89.80;;;;;;5095557;28;20028;-78
2021/12/04 01:03:25;;;;;;;6.13;4.60;;;6.60;89.80;;;;;;5095404;28;20499;-79
2021/12/04 01:05:51;;;;;;;5.38;4.35;;;6.60;89.80;;;;;;5095283;28;20525;-79
2021/12/04 01:08:17;;;;;;;5.18;4.63;;;6.60;89.80;;;;;;5096464;28;20048;-78
2021/12/04 01:10:43;;;;;;;6.53;4.70;;;6.60;89.80;;;;;;5096588;28;20031;-79
2021/12/04 01:13:12;;;;;;;5.75;5.13;;;6.60;89.70;;;;;;5095262;28;20024;-78
2021/12/04 01:15:40;;;;;;;5.35;4.70;;;6.60;89.70;;;;;;5095223;28;20024;-78
2021/12/04 01:18:06;;;;;;;5.00;4.50;;;6.60;89.80;;;;;;5095061;28;20028;-78
2021/12/04 01:20:32;;;;;;;5.30;4.70;;;6.60;89.80;;;;;;5095200;28;20391;-78
2021/12/04 01:22:57;;;;;;;5.18;4.68;;;6.70;89.80;;;;;;5095096;28;20028;-78
2021/12/04 01:25:23;;;;;;;5.30;4.80;;;6.70;90.10;;;;;;5096259;28;20035;-78
2021/12/04 01:27:49;;;;;;;5.00;4.53;;;6.70;89.70;;;;;;5095001;28;20023;-78
2021/12/04 01:30:14;;;;;;;4.80;4.22;;;6.70;89.70;;;;;;5095118;28;20165;-78
2021/12/04 01:32:40;;;;;;;4.40;4.00;;;6.70;89.70;;;;;;5094943;28;20364;-79
2021/12/04 01:35:06;;;;;;;4.97;4.47;;;6.60;89.70;;;;;;5096193;28;20028;-78
2021/12/04 01:37:32;;;;;;;4.72;4.32;;;6.60;89.70;;;;;;5094948;28;20028;-77
2021/12/04 01:39:58;;;;;;;5.00;4.50;;;6.70;89.80;;;;;;5094786;28;20028;-78
2021/12/04 01:42:23;;;;;;;4.85;4.45;;;6.70;89.70;;;;;;5096471;28;20028;-78
2021/12/04 01:44:50;;;;;;;4.72;4.32;;;6.70;89.80;;;;;;5094639;28;20024;-78
2021/12/04 01:47:20;;;;;;;4.45;4.05;;;6.70;89.70;;;;;;5094692;28;20032;-79
2021/12/04 01:49:48;;;;;;;5.97;4.40;;;6.60;89.70;;;;;;5095023;28;20077;-78
2021/12/04 01:52:17;;;;;;;4.75;4.30;;;6.60;89.70;;;;;;5095939;28;20029;-78
2021/12/04 01:54:42;;;;;;;4.85;4.45;;;6.60;89.70;;;;;;5094531;28;20024;-79
2021/12/04 01:57:08;;;;;;;5.55;4.50;;;6.60;89.70;;;;;;5095824;28;20038;-78
2021/12/04 01:59:35;;;;;;;5.00;4.50;;;6.60;89.80;;;;;;5095339;28;20388;-79
2021/12/04 02:02:03;;;;;;;4.93;4.43;;;6.60;89.80;;;;;;5094337;28;20024;-78
2021/12/04 02:04:29;;;;;;;4.57;4.18;;;6.60;89.80;;;;;;5094537;28;20487;-78
2021/12/04 02:06:54;;;;;;;5.22;4.72;;;6.60;89.80;;;;;;5095654;28;20079;-78
2021/12/04 02:09:20;;;;;;;4.63;4.18;;;6.60;89.80;;;;;;5094371;28;20454;-78
2021/12/04 02:11:46;;;;;;;4.80;4.30;;;6.60;89.80;;;;;;5094282;28;20043;-78
2021/12/04 02:14:13;;;;;;;5.18;4.68;;;6.60;89.80;;;;;;5094157;28;20089;-78
2021/12/04 02:16:38;;;;;;;5.65;5.05;;;6.60;90.00;;;;;;5094213;28;20024;-77
2021/12/04 02:19:04;;;;;;;4.88;4.38;;;6.60;89.80;;;;;;5093998;28;20024;-78
2021/12/04 02:21:31;;;;;;;5.68;4.50;;;6.60;89.80;;;;;;5093994;28;20031;-78
2021/12/04 02:23:57;;;;;;;5.45;4.88;;;6.60;89.80;;;;;;5094075;28;20107;-74
2021/12/04 02:26:22;;;;;;;5.03;4.53;;;6.60;89.80;;;;;;5093992;28;20457;-75
2021/12/04 02:28:48;;;;;;;5.18;4.68;;;6.60;89.90;;;;;;5093972;28;20499;-74
2021/12/04 02:31:14;;;;;;;5.50;5.00;;;6.60;89.90;;;;;;5095173;28;20043;-74
2021/12/04 02:33:39;;;;;;;4.97;4.47;;;6.60;90.00;;;;;;5093785;28;20016;-74
2021/12/04 02:36:06;;;;;;;4.85;4.15;;;6.50;89.90;;;;;;5095362;28;20035;-74
2021/12/04 02:38:33;;;;;;;4.75;4.25;;;6.60;89.90;;;;;;5093662;28;20038;-74
2021/12/04 02:41:00;;;;;;;4.88;4.47;;;6.60;90.00;;;;;;5093562;28;20014;-74
2021/12/04 02:43:26;;;;;;;4.78;4.28;;;6.60;89.90;;;;;;5093598;28;20020;-74
2021/12/04 02:45:52;;;;;;;5.43;4.50;;;6.60;90.00;;;;;;5093893;28;20039;-81
2021/12/04 02:48:19;;;;;;;5.28;4.78;;;6.60;90.00;;;;;;5094129;28;20459;-81
2021/12/04 02:50:45;;;;;;;4.60;4.20;;;6.60;89.90;;;;;;5094154;28;20012;-82
2021/12/04 02:53:11;;;;;;;5.47;4.40;;;6.60;90.00;;;;;;5095167;28;20158;-82
2021/12/04 02:55:37;;;;;;;4.72;3.97;;;6.60;89.90;;;;;;5095402;28;20110;-81
2021/12/04 02:58:03;;;;;;;3.95;3.65;;;6.60;89.90;;;;;;5094257;28;20032;-83
2021/12/04 03:00:29;;;;;;;4.07;3.67;;;6.60;89.90;;;;;;5093976;28;20026;-82
2021/12/04 03:02:56;;;;;;;3.90;3.60;;;6.60;89.90;;;;;;5093941;28;20391;-82
2021/12/04 03:05:24;;;;;;;3.70;3.40;;;6.60;89.90;;;;;;5093653;28;20400;-81
2021/12/04 03:07:55;;;;;;;4.10;3.70;;;6.60;89.80;;;;;;5093475;28;20032;-80
2021/12/04 03:10:21;;;;;;;4.10;3.55;;;6.70;90.00;;;;;;5094813;28;20103;-81
2021/12/04 03:12:47;;;;;;;3.45;3.05;;;6.60;89.90;;;;;;5092581;28;20027;-81
2021/12/04 03:15:14;;;;;;;3.63;3.30;;;6.70;89.90;;;;;;5093408;28;20445;-82
2021/12/04 03:17:39;;;;;;;4.00;3.60;;;6.60;89.80;;;;;;5093425;28;20396;-81
2021/12/04 03:20:07;;;;;;;3.60;3.25;;;6.70;89.90;;;;;;5093274;28;20035;-81
2021/12/04 03:22:33;;;;;;;3.60;3.20;;;6.70;89.90;;;;;;5094480;28;20028;-80
2021/12/04 03:24:59;;;;;;;4.55;3.53;;;6.70;89.90;;;;;;5094284;28;20054;-81
2021/12/04 03:27:26;;;;;;;3.65;3.35;;;6.70;89.90;;;;;;5093147;28;20016;-81
2021/12/04 03:29:58;;;;;;;6.53;3.80;;;6.70;89.80;;;;;;5092859;28;20020;-80
2021/12/04 03:35:25;;;;;;;3.10;2.80;;;6.70;89.80;;;;;;5094510;28;20031;-79
2021/12/04 03:43:10;;;;;;;3.83;3.30;;;6.70;89.80;;;;;;5094511;28;20031;-81
2021/12/04 03:45:39;;;;;;;4.90;3.30;;;6.70;89.80;;;;;;5092777;28;20036;-81
2021/12/04 03:48:08;;;;;;;3.78;3.00;;;6.70;89.80;;;;;;5092894;28;20020;-81
2021/12/04 03:50:35;;;;;;;4.20;3.30;;;6.70;89.70;;;;;;5092796;28;20024;-80
2021/12/04 03:53:01;;;;;;;4.60;3.92;;;6.70;89.80;;;;;;5092726;28;20492;-81
2021/12/04 03:55:27;;;;;;;3.85;3.25;;;6.70;89.70;;;;;;5093940;28;20032;-81
2021/12/04 03:57:53;;;;;;;4.00;3.40;;;6.70;89.70;;;;;;5092728;28;20031;-81
2021/12/04 04:00:19;;;;;;;3.88;3.33;;;6.70;89.70;;;;;;5092533;28;20035;-81
2021/12/04 04:02:45;;;;;;;3.92;3.53;;;6.70;89.70;;;;;;5093893;28;20028;-81
2021/12/04 04:05:11;;;;;;;4.00;3.30;;;6.70;89.70;;;;;;5093703;28;20027;-81
2021/12/04 04:07:36;;;;;;;4.43;3.63;;;6.80;89.70;;;;;;5093400;28;20024;-80
2021/12/04 04:10:03;;;;;;;5.72;3.75;;;6.80;89.70;;;;;;5092709;28;20024;-81
2021/12/04 04:12:29;;;;;;;4.82;3.75;;;6.80;89.70;;;;;;5093718;28;20016;-81
2021/12/04 04:14:55;;;;;;;5.10;3.63;;;6.80;89.70;;;;;;5092474;28;20024;-81
2021/12/04 04:17:20;;;;;;;5.63;4.10;;;6.80;89.70;;;;;;5092524;28;20078;-81
2021/12/04 04:19:46;;;;;;;3.92;3.50;;;6.80;89.80;;;;;;5092236;28;20393;-81
2021/12/04 04:22:12;;;;;;;4.68;3.70;;;6.80;89.70;;;;;;5093706;28;20100;-80
2021/12/04 04:24:38;;;;;;;4.50;3.80;;;6.80;89.70;;;;;;5092082;28;20024;-80
2021/12/04 04:27:04;;;;;;;4.90;4.00;;;6.80;89.80;;;;;;5092224;28;20051;-81
2021/12/04 04:29:30;;;;;;;5.70;3.95;;;6.80;89.70;;;;;;5092173;28;20031;-80
2021/12/04 04:31:55;;;;;;;5.85;4.20;;;6.80;89.70;;;;;;5092067;28;20021;-80
2021/12/04 04:34:32;;;;;;;5.57;3.78;;;6.80;89.60;;;;;;5093372;28;20021;-80
2021/12/04 04:58:03;;;;;;;6.75;4.43;;;6.80;89.80;;;;;;5093422;28;20035;-81
2021/12/04 05:11:21;;;;;;;8.30;5.53;;;6.80;89.80;;;;;;5092663;28;20062;-78
2021/12/04 05:13:47;;;;;;;8.45;5.35;;;6.70;89.80;;;;;;5091383;28;20098;-78
2021/12/04 05:18:43;;;;;;;9.68;5.75;;;6.70;89.80;;;;;;5092911;28;20028;-77
2021/12/04 05:21:11;;;;;;;10.20;5.93;;;6.70;89.90;;;;;;5091649;28;20012;-78
2021/12/04 05:23:43;;;;;;;9.10;5.50;;;6.70;90.00;;;;;;5091251;28;20051;-78
2021/12/04 05:26:12;;;;;;;7.43;5.53;;;6.70;89.90;;;;;;5091145;28;20484;-78
2021/12/04 05:28:38;;;;;;;10.05;6.00;;;6.80;90.00;;;;;;5091179;28;20050;-78
2021/12/04 05:31:03;;;;;;;10.27;6.30;;;6.70;89.90;;;;;;5092509;28;20106;-79
2021/12/04 05:33:29;;;;;;;12.20;5.93;;;6.70;89.90;;;;;;5091193;28;20024;-79
2021/12/04 05:35:55;;;;;;;8.23;5.20;;;6.70;89.80;;;;;;5094621;28;20095;-78
2021/12/04 05:38:21;;;;;;;10.43;6.13;;;6.70;89.90;;;;;;5094963;28;20024;-78
2021/12/04 05:40:47;;;;;;;7.43;5.70;;;6.70;89.90;;;;;;5094865;28;20023;-78
2021/12/04 05:43:14;;;;;;;9.32;5.90;;;6.70;90.20;;;;;;5094927;28;20024;-78
2021/12/04 05:45:45;;;;;;;10.48;5.93;;;6.70;90.00;;;;;;5094555;28;20024;-78
2021/12/04 05:48:29;;;;;;;11.43;6.65;;;6.70;90.00;;;;;;5094708;28;20020;-78
2021/12/04 05:51:16;;;;;;;;;;;6.80;90.00;;;;;;5095209;28;20021;-78
2021/12/04 05:53:55;;;;;;;8.65;5.15;;;6.70;89.90;;;;;;5094613;28;19904;-76
2021/12/04 05:56:21;;;;;;;10.32;5.95;;;6.70;89.90;;;;;;5095853;28;20027;-78
2021/12/04 05:58:48;;;;;;;10.43;5.70;;;6.70;90.00;;;;;;5094457;28;20028;-78
2021/12/04 06:01:18;;;;;;;10.85;6.05;;;6.70;90.00;;;;;;5095800;28;20034;-77
2021/12/04 06:03:44;;;;;;;9.18;6.10;;;6.70;90.00;;;;;;5095666;28;20032;-77
2021/12/04 06:06:09;;;;;;;11.77;6.32;;;6.70;90.00;;;;;;5094308;28;20082;-77
2021/12/04 06:08:35;;;;;;;10.55;5.95;;;6.70;90.00;;;;;;5094094;28;20048;-77
2021/12/04 06:11:01;;;;;;;9.77;5.95;;;6.70;90.00;;;;;;5094262;28;20361;-78
2021/12/04 06:13:27;;;;;;;9.95;5.70;;;6.70;90.00;;;;;;5094556;28;20127;-78
2021/12/04 06:15:53;;;;;;;13.02;6.35;;;6.70;90.00;;;;;;5095494;28;20106;-78
2021/12/04 06:18:21;;;;;;;9.68;5.70;;;6.70;90.00;;;;;;5095561;28;20068;-77
2021/12/04 06:23:32;;;;;;;9.68;6.13;;;6.70;90.00;;;;;;5095667;28;20081;-78
2021/12/04 06:25:59;;;;;;;9.40;6.28;;;6.70;90.00;;;;;;5093872;28;20024;-78
2021/12/04 06:28:25;;;;;;;8.88;5.90;;;6.70;90.00;;;;;;5093936;28;20065;-78
2021/12/04 06:30:52;;;;;;;9.10;5.57;;;6.80;90.00;;;;;;5093957;28;20024;-78
2021/12/04 06:33:18;;;;;;;10.73;5.88;;;6.70;90.00;;;;;;5093857;28;20023;-79
2021/12/04 06:35:46;;;;;;;9.27;5.43;;;6.70;90.00;;;;;;5093827;28;20396;-78
2021/12/04 06:38:14;;;;;;;12.23;5.65;;;6.80;90.00;;;;;;5093853;28;20027;-77
2021/12/04 06:40:40;;;;;;;11.23;6.38;;;6.80;90.00;;;;;;5094980;28;20034;-78
2021/12/04 06:43:06;;;;;;;8.88;5.68;;;6.80;90.00;;;;;;5093709;28;20028;-78
2021/12/04 06:45:35;;;;;;;9.98;5.63;;;6.80;90.00;;;;;;5093516;28;20067;-78
2021/12/04 06:48:07;;;;;;;9.70;5.97;;;6.80;90.00;;;;;;5093567;28;20487;-78
2021/12/04 06:55:48;;;;;;;9.38;5.28;;;6.80;90.00;;;;;;5094641;28;20036;-78
2021/12/04 06:58:15;;;;;;;7.97;5.35;;;6.80;90.00;;;;;;5093405;28;20034;-78
2021/12/04 07:00:41;;;;;;;8.25;5.50;;;6.80;89.90;;;;;;5093257;28;20097;-78
2021/12/04 07:03:06;;;;;;;12.57;5.53;;;6.80;89.90;;;;;;5094556;28;20027;-78
2021/12/04 07:05:32;;;;;;;8.13;5.63;;;6.80;89.90;;;;;;5094546;28;20020;-77
2021/12/04 07:07:58;;;;;;;8.90;5.97;;;6.80;89.90;;;;;;5094593;28;20028;-78
2021/12/04 07:10:24;;;;;;;8.85;5.55;;;6.80;89.90;;;;;;5093187;28;20016;-78
2021/12/04 07:12:50;;;;;;;9.98;6.38;;;6.80;89.90;;;;;;5094391;28;20020;-78
2021/12/04 07:15:15;;;;;;;10.00;6.13;;;6.90;89.90;;;;;;5093203;28;20495;-78
2021/12/04 07:17:41;;;;;;;10.88;5.95;;;6.80;89.90;;;;;;5093077;28;20016;-78
2021/12/04 07:20:09;;;;;;;10.35;6.13;;;6.80;89.90;;;;;;5094475;28;20049;-78
2021/12/04 07:22:35;;;;;;;10.23;5.88;;;6.80;89.90;;;;;;5094170;28;20024;-79
2021/12/04 07:25:02;;;;;;;11.00;6.07;;;6.80;89.80;;;;;;5092663;28;20519;-78
2021/12/04 07:27:28;;;;;;;9.10;6.20;;;6.80;89.80;;;;;;5092651;28;20020;-78
2021/12/04 07:29:55;;;;;;;10.30;5.80;;;6.80;89.90;;;;;;5092762;28;20016;-79
2021/12/04 07:32:20;;;;;;;12.98;6.50;;;6.80;89.90;;;;;;5092609;28;20020;-78
2021/12/04 07:34:46;;;;;;;9.27;5.55;;;6.80;89.90;;;;;;5094052;28;20073;-79
2021/12/04 07:37:12;;;;;;;10.07;5.82;;;6.80;90.00;;;;;;5092544;28;20430;-79
2021/12/04 07:39:37;;;;;;;10.00;6.40;;;6.80;90.20;;;;;;5093787;28;20020;-79
2021/12/04 07:42:03;;;;;;;11.93;6.90;;;6.70;90.00;;;;;;5093794;28;20476;-78
2021/12/04 07:44:29;;;;;;;11.02;6.63;;;6.70;90.00;;;;;;5092543;28;20020;-78
2021/12/04 07:46:55;;;;;;;12.30;7.35;;;6.80;90.00;;;;;;5093623;28;20526;-79
2021/12/04 07:49:21;;;;;;;12.48;6.43;;;6.80;90.00;;;;;;5092289;28;20023;-79
2021/12/04 07:51:48;;;;;;;13.70;7.15;;;6.80;90.00;;;;;;5092336;28;20341;-78
2021/12/04 07:54:14;;;;;;;12.10;7.15;;;6.80;90.00;;;;;;5092769;28;20107;-78
2021/12/04 07:56:39;;;;;;;13.93;6.80;;;6.90;90.00;;;;;;5092267;28;20474;-79
2021/12/04 07:59:05;;;;;;;10.95;6.50;;;6.90;90.00;;;;;;5091848;28;20028;-79
2021/12/04 08:01:31;;;;;;;11.88;6.68;;;6.90;89.90;;;;;;5093679;28;20028;-79
2021/12/04 08:03:56;;;;;;;10.65;6.70;;;6.90;89.90;;;;;;5093483;28;20028;-78
2021/12/04 08:06:22;;;;;;;11.10;7.05;;;6.90;89.90;;;;;;5092098;28;20028;-78
2021/12/04 08:08:49;;;;;;;12.93;7.38;;;6.90;89.80;;;;;;5093486;28;20506;-78
2021/12/04 08:11:14;;;;;;;10.10;6.50;;;6.90;89.90;;;;;;5093492;28;20024;-78
2021/12/04 08:13:40;;;;;;;10.52;7.07;;;6.90;89.90;;;;;;5092126;28;20108;-79
2021/12/04 08:16:06;;;;;;;13.43;7.40;;;6.90;89.80;;;;;;5093481;28;20448;-78
2021/12/04 08:18:32;;;;;;;17.33;8.90;;;6.90;89.80;;;;;;5092082;28;20063;-79
2021/12/04 08:20:59;;;;;;;15.68;8.82;;;7.00;89.90;;;;;;5092073;28;20093;-79
2021/12/04 08:23:24;;;;;;;14.95;8.35;;;7.00;89.90;;;;;;5092006;28;20035;-78
2021/12/04 08:25:50;;;;;;;13.05;7.55;;;7.00;89.80;;;;;;5093303;28;20377;-79
2021/12/04 08:28:16;;;;;;;14.82;7.35;;;7.00;89.80;;;;;;5093334;28;20031;-79
2021/12/04 08:30:41;;;;;;;14.15;7.25;;;7.00;89.80;;;;;;5089008;28;20039;-79
2021/12/04 08:33:09;;;;;;;13.07;6.90;;;7.00;89.80;;;;;;5091957;28;20110;-80
2021/12/04 08:35:39;;;;;;;12.98;7.03;;;7.00;89.80;;;;;;5093171;28;20016;-79
2021/12/04 08:38:07;;;;;;;11.20;6.72;;;7.10;89.80;;;;;;5093335;28;20414;-79
2021/12/04 08:40:34;;;;;;;9.38;5.10;;;7.10;89.80;;;;;;5094241;28;20493;-79
2021/12/04 08:43:00;;;;;;;9.70;5.97;;;7.00;89.80;;;;;;5095469;28;20024;-80
2021/12/04 08:45:27;;;;;;;9.82;6.00;;;7.00;89.90;;;;;;5094879;28;20044;-77
2021/12/04 08:47:53;;;;;;;10.15;6.07;;;7.00;89.80;;;;;;5090382;28;20081;-79
2021/12/04 08:50:22;;;;;;;10.35;6.07;;;7.10;89.90;;;;;;5095083;28;20560;-79
2021/12/04 08:52:48;;;;;;;11.32;5.50;;;7.00;89.80;;;;;;5095379;28;20066;-79
2021/12/04 08:55:15;;;;;;;11.50;6.15;;;7.10;89.90;;;;;;5095639;28;20028;-78
2021/12/04 08:57:42;;;;;;;13.05;6.55;;;7.10;89.80;;;;;;5094135;28;20020;-80
2021/12/04 09:00:15;;;;;;;13.30;6.40;;;7.10;89.80;;;;;;5098160;28;20039;-78
2021/12/04 09:02:41;;;;;;;14.70;6.65;;;7.10;89.80;;;;;;5097314;28;20089;-80
2021/12/04 09:05:09;;;;;;;12.35;6.25;;;7.10;89.80;;;;;;5095773;28;20062;-78
2021/12/04 09:07:35;;;;;;;12.70;6.90;;;7.10;89.70;;;;;;5092529;28;20031;-78
2021/12/04 09:10:00;;;;;;;13.15;6.40;;;7.20;89.70;;;;;;5096112;28;20395;-76
2021/12/04 09:12:28;;;;;;;12.18;6.15;;;7.10;89.60;;;;;;5097223;28;20027;-77
2021/12/04 09:14:56;;;;;;;10.05;5.63;;;7.10;89.70;;;;;;5097900;28;20468;-77
2021/12/04 09:17:22;;;;;;;9.75;5.90;;;7.10;89.70;;;;;;5096977;28;20063;-78
2021/12/04 09:19:48;;;;;;;11.15;6.18;;;7.00;89.70;;;;;;5097493;28;20031;-78
2021/12/04 09:22:24;;;;;;;9.15;5.53;;;7.00;89.80;;;;;;5096868;28;20020;-77
2021/12/04 09:24:54;;;;;;;8.82;5.85;;;7.00;90.10;;;;;;5096583;28;20024;-76
2021/12/04 09:35:37;;;;;;;10.23;7.00;;;7.00;90.20;;;;;;5096779;28;20032;-78
2021/12/04 10:02:10;;;;;;;12.07;7.28;;;7.10;90.60;;;;;;5096333;28;20028;-77
2021/12/04 10:20:54;;;;;;;12.57;6.57;;;7.20;90.80;;;;;;5095129;28;20131;-77
2021/12/04 10:35:06;;;;;;;15.10;7.55;;;7.20;91.00;;;;;;5095410;28;20101;-77
2021/12/04 10:37:34;;;;;;;11.48;6.78;;;7.20;91.00;;;;;;5093778;28;20027;-76
2021/12/04 10:40:08;;;;;;;10.68;6.43;;;7.20;90.90;;;;;;5093860;28;20032;-76
2021/12/04 10:42:45;;;;;;;12.70;6.50;;;7.20;91.00;;;;;;5095263;28;20475;-78
2021/12/04 10:45:11;;;;;;;11.82;6.28;;;7.30;90.90;;;;;;5094904;28;20024;-76
2021/12/04 10:47:36;;;;;;;11.45;5.93;;;7.30;90.90;;;;;;5094782;28;20131;-79
2021/12/04 10:50:28;;;;;;;8.75;5.00;;;7.30;91.00;;;;;;5094901;28;20025;-77
2021/12/04 11:07:01;;;;;;;11.93;5.90;;;7.30;90.80;;;;;;5094515;28;20112;-78
2021/12/04 11:42:53;;;;;;;9.02;5.18;;;7.30;91.00;;;;;;5094253;28;20071;-77
2021/12/04 11:45:27;;;;;;;9.57;5.85;;;7.30;91.00;;;;;;5093558;28;20097;-78
2021/12/04 11:47:57;;;;;;;10.05;6.45;;;7.30;91.00;;;;;;5092550;28;20024;-77
2021/12/04 11:50:27;;;;;;;7.72;5.72;;;7.40;90.90;;;;;;5092501;28;20491;-78
2021/12/04 11:52:59;;;;;;;9.13;6.10;;;7.40;90.90;;;;;;5092333;28;20020;-78
2021/12/04 11:55:27;;;;;;;9.35;5.60;;;7.40;90.90;;;;;;5093683;28;20411;-79
2021/12/04 11:57:54;;;;;;;9.20;6.50;;;7.40;91.00;;;;;;5092400;28;20020;-79
2021/12/04 12:00:25;;;;;;;8.95;6.07;;;7.40;90.90;;;;;;5092723;28;20028;-78
2021/12/04 12:03:04;;;;;;;10.80;6.88;;;7.40;90.80;;;;;;5093426;28;20024;-78
2021/12/04 12:05:30;;;;;;;10.02;6.43;;;7.40;90.80;;;;;;5092012;28;20371;-78
2021/12/04 12:07:58;;;;;;;8.95;5.65;;;7.40;90.70;;;;;;5093295;28;20483;-79
2021/12/04 12:10:26;;;;;;;9.25;6.70;;;7.40;90.80;;;;;;5093509;28;20472;-77
2021/12/04 12:13:03;;;;;;;9.43;6.75;;;7.40;90.80;;;;;;5092083;28;20020;-78
2021/12/04 12:19:43;;;;;;;8.32;6.72;;;7.50;90.70;;;;;;5093352;28;20054;-79
2021/12/04 12:22:29;;;;;;;8.05;5.93;;;7.40;90.60;;;;;;5073760;28;20044;-79
2021/12/04 12:25:06;;;;;;;8.90;6.45;;;7.50;90.60;;;;;;5091976;28;20544;-78
2021/12/04 12:38:56;;;;;;;7.47;6.03;;;7.50;90.50;;;;;;5103018;28;20028;-79
2021/12/04 12:41:37;;;;;;;7.15;6.43;;;7.50;90.50;;;;;;5091914;28;20036;-78
2021/12/04 12:44:14;;;;;;;7.15;5.97;;;7.50;90.40;;;;;;5091247;28;20032;-78
2021/12/04 12:46:42;;;;;;;6.65;5.93;;;7.50;90.40;;;;;;5092702;28;20032;-78
2021/12/04 12:49:34;;;;;;;7.53;6.25;;;7.50;90.40;;;;;;5093195;28;20020;-78
2021/12/04 12:52:24;;;;;;;6.47;5.78;;;7.40;90.40;;;;;;5091563;28;20024;-78
2021/12/04 12:54:57;;;;;;;7.43;6.20;;;7.40;90.40;;;;;;5091717;28;20027;-78
2021/12/04 12:57:37;;;;;;;8.30;5.95;;;7.50;90.40;;;;;;5093077;28;20024;-80
2021/12/04 13:14:22;;;;;;;6.70;6.00;;;7.50;90.40;;;;;;5092896;28;20123;-80
2021/12/04 13:20:10;;;;;;;6.38;4.93;;;7.50;90.30;;;;;;5092846;28;20092;-79
2021/12/04 13:22:37;;;;;;;6.03;5.10;;;7.50;90.40;;;;;;5092844;28;20506;-79
2021/12/04 13:25:07;;;;;;;6.18;5.53;;;7.40;90.30;;;;;;5091111;28;20024;-79
2021/12/04 13:30:09;;;;;;;6.93;6.22;;;7.40;90.40;;;;;;5092862;28;20035;-80
2021/12/04 13:32:39;;;;;;;8.00;5.72;;;7.40;90.40;;;;;;5092343;28;20032;-79
2021/12/04 13:35:07;;;;;;;7.22;5.45;;;7.50;90.40;;;;;;5091168;28;20035;-78
2021/12/04 13:37:32;;;;;;;9.15;6.10;;;7.50;90.40;;;;;;5091176;28;20051;-79
2021/12/04 13:40:04;;;;;;;6.05;5.45;;;7.50;90.40;;;;;;5091095;28;20028;-78
2021/12/04 13:42:31;;;;;;;6.30;5.55;;;7.50;90.40;;;;;;5089134;28;20032;-79
2021/12/04 13:44:58;;;;;;;7.22;5.88;;;7.50;90.40;;;;;;5091209;28;20028;-78
2021/12/04 13:47:25;;;;;;;6.47;5.32;;;7.50;90.40;;;;;;5092453;28;20029;-80
2021/12/04 13:49:55;;;;;;;5.75;5.15;;;7.50;90.40;;;;;;5091454;28;20039;-80
2021/12/04 13:52:21;;;;;;;6.60;5.57;;;7.60;90.40;;;;;;5088674;28;20032;-78
2021/12/04 13:54:52;;;;;;;7.50;6.18;;;7.60;90.30;;;;;;5092378;28;20032;-77
2021/12/04 13:57:18;;;;;;;7.93;6.45;;;7.60;90.30;;;;;;5093625;28;20089;-78
2021/12/04 13:59:44;;;;;;;7.18;5.88;;;7.60;90.30;;;;;;5094750;28;20472;-78
2021/12/04 14:02:19;;;;;;;7.28;5.85;;;7.60;90.30;;;;;;5094555;28;20020;-79
2021/12/04 14:04:57;;;;;;;6.60;5.90;;;7.60;90.30;;;;;;5095860;28;20518;-77
2021/12/04 14:07:23;;;;;;;7.22;5.95;;;7.60;90.30;;;;;;5094593;28;20503;-78
2021/12/04 14:09:49;;;;;;;7.20;6.00;;;7.60;90.30;;;;;;5094441;28;20028;-77
2021/12/04 14:12:14;;;;;;;7.63;5.93;;;7.60;90.30;;;;;;5095694;28;20081;-77
2021/12/04 14:14:40;;;;;;;7.53;6.10;;;7.60;90.30;;;;;;5095686;28;20023;-77
2021/12/04 14:17:11;;;;;;;6.55;5.63;;;7.60;90.30;;;;;;5095469;28;20039;-78
2021/12/04 14:19:39;;;;;;;8.00;6.45;;;7.70;90.30;;;;;;5095389;28;20036;-78
2021/12/04 14:22:13;;;;;;;8.40;6.32;;;7.70;90.20;;;;;;5094004;28;20039;-76
2021/12/04 14:28:00;;;;;;;7.05;6.00;;;7.60;90.30;;;;;;5095422;28;20067;-78
2021/12/04 14:30:33;;;;;;;10.05;7.60;;;7.60;90.30;;;;;;5094112;28;20024;-77
2021/12/04 14:33:01;;;;;;;7.65;6.47;;;7.70;90.30;;;;;;5093855;28;20024;-77
2021/12/04 14:35:37;;;;;;;7.50;6.53;;;7.70;90.30;;;;;;5095205;28;20030;-77
2021/12/04 14:38:06;;;;;;;8.25;6.72;;;7.60;90.20;;;;;;5093695;28;20028;-77
2021/12/04 14:40:41;;;;;;;7.85;6.53;;;7.60;90.30;;;;;;5093859;28;20110;-77
2021/12/04 14:46:29;;;;;;;8.60;6.82;;;7.70;90.30;;;;;;5094924;28;20072;-73
2021/12/04 14:48:55;;;;;;;10.15;7.38;;;7.60;90.30;;;;;;5093716;28;20035;-73
2021/12/04 14:51:22;;;;;;;7.85;6.65;;;7.60;90.30;;;;;;5093571;28;20484;-73
2021/12/04 14:53:51;;;;;;;9.02;7.43;;;7.60;90.30;;;;;;5094788;28;20035;-73
2021/12/04 14:56:19;;;;;;;8.63;7.60;;;7.60;90.30;;;;;;5093475;28;20036;-73
2021/12/04 14:58:45;;;;;;;10.27;8.15;;;7.60;90.30;;;;;;5093190;28;20024;-73
2021/12/04 15:01:15;;;;;;;9.65;7.53;;;7.60;90.40;;;;;;5094583;28;20488;-73
2021/12/04 15:03:50;;;;;;;8.80;7.78;;;7.60;90.40;;;;;;5093279;28;20194;-73
2021/12/04 15:06:17;;;;;;;8.45;7.20;;;7.60;90.40;;;;;;5093280;28;20511;-73
2021/12/04 15:08:53;;;;;;;8.02;7.07;;;7.60;90.40;;;;;;5093233;28;20036;-73
2021/12/04 15:11:22;;;;;;;8.73;7.45;;;7.60;90.40;;;;;;5093324;28;20028;-73
2021/12/04 15:14:10;;;;;;;8.20;6.90;;;7.60;90.40;;;;;;5093102;28;20089;-73
2021/12/04 15:16:52;;;;;;;9.00;7.25;;;7.60;90.40;;;;;;5093060;28;20031;-73
2021/12/04 15:19:28;;;;;;;9.95;8.02;;;7.60;90.40;;;;;;5092958;28;20032;-74
2021/12/04 15:21:59;;;;;;;9.18;7.60;;;7.60;90.40;;;;;;5093057;28;20032;-73
2021/12/04 15:24:35;;;;;;;8.60;7.20;;;7.60;90.40;;;;;;5092903;28;20064;-73
2021/12/04 15:27:09;;;;;;;10.25;8.45;;;7.60;90.40;;;;;;5092727;28;20028;-72
2021/12/04 15:29:37;;;;;;;9.90;7.55;;;7.50;90.40;;;;;;5093090;28;20501;-72
2021/12/04 15:32:12;;;;;;;9.45;8.13;;;7.50;90.40;;;;;;5093164;28;20047;-73
2021/12/04 15:34:53;;;;;;;9.15;7.43;;;7.50;90.40;;;;;;5093963;28;20032;-72
2021/12/04 15:37:36;;;;;;;9.30;7.70;;;7.50;90.40;;;;;;5092664;28;20024;-72
2021/12/04 15:40:23;;;;;;;8.43;6.97;;;7.40;90.40;;;;;;5093984;28;20395;-72
2021/12/04 15:43:19;;;;;;;9.48;7.38;;;7.40;90.40;;;;;;5092856;28;20051;-72
2021/12/04 15:51:03;;;;;;;;;;;7.40;90.50;;;;;;5094275;28;20028;-72
2021/12/04 15:53:29;;;;;;;8.35;7.03;;;7.40;90.50;;;;;;5092342;28;19954;-72
2021/12/04 15:59:25;;;;;;;11.75;8.52;;;7.40;90.50;;;;;;5093830;28;20035;-72
2021/12/04 16:01:55;;;;;;;10.90;8.32;;;7.40;90.50;;;;;;5093891;28;20028;-72
2021/12/04 16:04:27;;;;;;;10.70;8.57;;;7.40;90.50;;;;;;5092239;28;20043;-72
2021/12/04 16:06:55;;;;;;;11.90;9.53;;;7.40;90.50;;;;;;5093406;28;20388;-73
2021/12/04 16:09:33;;;;;;;11.05;8.57;;;7.40;90.60;;;;;;5092099;28;20036;-72
2021/12/04 16:12:10;;;;;;;12.20;9.55;;;7.40;90.50;;;;;;5092020;28;20024;-73
2021/12/04 16:14:52;;;;;;;13.90;9.65;;;7.30;90.80;;;;;;5092158;28;20119;-74
2021/12/04 16:17:18;;;;;;;12.43;8.73;;;7.30;90.60;;;;;;5093663;28;20493;-73
2021/12/04 16:19:45;;;;;;;11.70;9.05;;;7.30;90.60;;;;;;5093140;28;20063;-73
2021/12/04 16:22:13;;;;;;;12.65;8.48;;;7.30;90.60;;;;;;5092064;28;20028;-73
2021/12/04 16:24:43;;;;;;;10.93;7.57;;;7.30;90.50;;;;;;5093464;28;20365;-73
2021/12/04 16:27:15;;;;;;;9.05;7.15;;;7.20;90.40;;;;;;5091914;28;20031;-72
2021/12/04 16:29:51;;;;;;;11.15;7.55;;;7.10;90.40;;;;;;5091780;28;20021;-72
2021/12/04 16:32:32;;;;;;;11.60;7.25;;;7.10;90.40;;;;;;5093056;28;20020;-73
2021/12/04 16:37:48;;;;;;;10.63;6.47;;;7.00;90.40;;;;;;5093405;28;20480;-72
2021/12/04 16:40:23;;;;;;;8.77;5.97;;;6.90;90.40;;;;;;5093029;28;20024;-72
2021/12/04 16:42:52;;;;;;;9.68;6.50;;;6.90;90.40;;;;;;5091765;28;20400;-72
2021/12/04 16:45:20;;;;;;;9.25;5.85;;;6.90;90.40;;;;;;5091380;28;20020;-72
2021/12/04 16:47:50;;;;;;;9.82;6.00;;;6.80;90.40;;;;;;5091657;28;20115;-72
2021/12/04 16:50:19;;;;;;;8.75;5.72;;;6.80;90.40;;;;;;5092873;28;20043;-72